Time;durP1;ratioP1;P1;durP2;ratioP2;P2;SDS_P1;SDS_P2;PMS_P1;PMS_P2;Temp;Humidity;BMP_temperature;BMP_pressure;BME280_temperature;BME280_humidity;BME280_pressure;Samples;Min_cycle;Max_cycle;Signal;HPM_P1;HPM_P2
2023/11/23 00:04:06;;;;;;;14.8;7.8;;;;;;;-0.02;82.53;;;;;
2023/11/23 00:14:06;;;;;;;14.8;7.8;;;;;;;-0.05;82.52;;;;;
2023/11/23 00:25:11;;;;;;;14;8;;;;;;;0.01;82.37;;;;;
2023/11/23 00:35:06;;;;;;;14;8;;;;;;;0.11;82.35;;;;;
2023/11/23 00:46:06;;;;;;;16.4;9.4;;;;;;;0.18;81.87;;;;;
2023/11/23 00:57:06;;;;;;;16.4;9.4;;;;;;;-0.1;81.64;;;;;
2023/11/23 01:08:06;;;;;;;16.4;9.4;;;;;;;-0.01;81.95;;;;;
2023/11/23 01:18:06;;;;;;;24.7;13.1;;;;;;;-0.11;82.07;;;;;
2023/11/23 01:29:06;;;;;;;24.7;13.1;;;;;;;-0.02;81.96;;;;;
2023/11/23 01:39:07;;;;;;;24.7;13.1;;;;;;;-0.17;82.47;;;;;
2023/11/23 01:50:06;;;;;;;23.4;12.2;;;;;;;-0.09;82.45;;;;;
2023/11/23 02:01:06;;;;;;;23.4;12.2;;;;;;;-0.21;82.58;;;;;
2023/11/23 02:12:08;;;;;;;23.4;12.2;;;;;;;-0.12;82.69;;;;;
2023/11/23 02:22:07;;;;;;;23.4;11.6;;;;;;;-0.06;82.51;;;;;
2023/11/23 02:33:06;;;;;;;23.4;11.6;;;;;;;-0.13;82.16;;;;;
2023/11/23 02:44:06;;;;;;;23.4;11.6;;;;;;;-0.34;82.42;;;;;
2023/11/23 02:55:07;;;;;;;16.2;10;;;;;;;-0.44;82.72;;;;;
2023/11/23 03:05:06;;;;;;;16.2;10;;;;;;;-0.46;82.68;;;;;
2023/11/23 03:15:06;;;;;;;15.1;9.1;;;;;;;-0.67;83.22;;;;;
2023/11/23 03:26:06;;;;;;;15.1;9.1;;;;;;;-0.66;83.54;;;;;
2023/11/23 03:37:06;;;;;;;15.1;9.1;;;;;;;-0.76;84.1;;;;;
2023/11/23 03:47:06;;;;;;;19.8;10.4;;;;;;;-0.83;84.34;;;;;
2023/11/23 03:57:06;;;;;;;19.8;10.4;;;;;;;-0.77;84.22;;;;;
2023/11/23 04:07:06;;;;;;;19.8;10.4;;;;;;;-0.75;84.04;;;;;
2023/11/23 04:18:06;;;;;;;19.5;11.7;;;;;;;-0.81;84.14;;;;;
2023/11/23 04:28:06;;;;;;;19.5;11.7;;;;;;;-0.69;84.14;;;;;
2023/11/23 04:39:06;;;;;;;19.5;11.7;;;;;;;-0.56;83.71;;;;;
2023/11/23 04:49:06;;;;;;;18.6;10.4;;;;;;;-0.39;83.46;;;;;
2023/11/23 05:00:06;;;;;;;18.6;10.4;;;;;;;-0.59;83.58;;;;;
2023/11/23 05:10:07;;;;;;;18.6;10.4;;;;;;;-0.6;83.21;;;;;
2023/11/23 05:20:06;;;;;;;17;8.8;;;;;;;-0.52;82.82;;;;;
2023/11/23 05:31:06;;;;;;;17;8.8;;;;;;;-0.6;82.96;;;;;
2023/11/23 05:42:06;;;;;;;17;8.8;;;;;;;-0.62;82.95;;;;;
2023/11/23 05:53:06;;;;;;;13.8;7.6;;;;;;;-0.68;83.73;;;;;
2023/11/23 06:03:06;;;;;;;13.8;7.6;;;;;;;-0.54;83.93;;;;;
2023/11/23 06:13:06;;;;;;;13.8;7.6;;;;;;;-0.31;83.76;;;;;
2023/11/23 06:24:06;;;;;;;14.1;6.9;;;;;;;-0.22;82.79;;;;;
2023/11/23 06:34:06;;;;;;;14.1;6.9;;;;;;;-0.09;82.71;;;;;
2023/11/23 06:45:06;;;;;;;12.9;6.8;;;;;;;0.1;82.86;;;;;
2023/11/23 06:55:06;;;;;;;12.9;6.8;;;;;;;0.34;82.66;;;;;
2023/11/23 07:05:06;;;;;;;12.9;6.8;;;;;;;0.63;82.05;;;;;
2023/11/23 07:16:06;;;;;;;17.3;8.4;;;;;;;0.87;81.03;;;;;
2023/11/23 07:26:06;;;;;;;17.3;8.4;;;;;;;1.24;80.88;;;;;
2023/11/23 07:36:06;;;;;;;17.3;8.4;;;;;;;1.36;79.79;;;;;
2023/11/23 07:46:06;;;;;;;14.3;6.9;;;;;;;1.79;78.48;;;;;
2023/11/23 07:56:06;;;;;;;14.3;6.9;;;;;;;1.96;76.78;;;;;
2023/11/23 08:06:06;;;;;;;14.3;6.9;;;;;;;2.35;75.85;;;;;
2023/11/23 08:17:06;;;;;;;10.9;5.3;;;;;;;2.46;74.59;;;;;
2023/11/23 08:27:06;;;;;;;10.9;5.3;;;;;;;2.83;74.57;;;;;
2023/11/23 08:38:06;;;;;;;10.9;5.3;;;;;;;3.08;74.03;;;;;
2023/11/23 08:49:06;;;;;;;12.2;6.4;;;;;;;3.57;72.91;;;;;
2023/11/23 08:59:06;;;;;;;12.2;6.4;;;;;;;3.72;72.83;;;;;
2023/11/23 09:09:06;;;;;;;12.2;6.4;;;;;;;3.55;72.78;;;;;
2023/11/23 09:20:08;;;;;;;14.3;6.9;;;;;;;3.89;74.66;;;;;
2023/11/23 09:30:06;;;;;;;14.3;6.9;;;;;;;4.28;74.08;;;;;
2023/11/23 09:40:08;;;;;;;14.3;6.9;;;;;;;4.18;74.22;;;;;
2023/11/23 09:51:07;;;;;;;12.2;6.3;;;;;;;4.41;73.88;;;;;
2023/11/23 10:02:09;;;;;;;12.2;6.3;;;;;;;4.61;74.39;;;;;
2023/11/23 10:13:08;;;;;;;12.2;6.3;;;;;;;4.72;74.14;;;;;
2023/11/23 10:24:07;;;;;;;12.1;5.7;;;;;;;4.7;74.03;;;;;
2023/11/23 10:34:08;;;;;;;12.1;5.7;;;;;;;4.96;73.52;;;;;
2023/11/23 10:45:06;;;;;;;13.3;6.8;;;;;;;5.2;73.54;;;;;
2023/11/23 10:55:06;;;;;;;13.3;6.8;;;;;;;5.47;73.85;;;;;
2023/11/23 11:06:06;;;;;;;13.3;6.8;;;;;;;5.73;74.3;;;;;
2023/11/23 11:16:06;;;;;;;10.8;6.8;;;;;;;5.63;73.53;;;;;
2023/11/23 11:26:06;;;;;;;10.8;6.8;;;;;;;5.73;74.45;;;;;
2023/11/23 11:36:07;;;;;;;10.8;6.8;;;;;;;5.82;74.51;;;;;
2023/11/23 11:47:06;;;;;;;13;6.5;;;;;;;5.81;74.23;;;;;
2023/11/23 11:57:07;;;;;;;13;6.5;;;;;;;5.73;72.84;;;;;
2023/11/23 12:07:06;;;;;;;13;6.5;;;;;;;6.16;73.49;;;;;
2023/11/23 12:17:06;;;;;;;12.5;6.4;;;;;;;6.22;73.09;;;;;
2023/11/23 12:27:07;;;;;;;12.5;6.4;;;;;;;6.48;73.36;;;;;
2023/11/23 12:38:06;;;;;;;12.5;6.4;;;;;;;6.6;72.1;;;;;
2023/11/23 12:49:06;;;;;;;11;6;;;;;;;6.66;72.38;;;;;
2023/11/23 12:59:06;;;;;;;11;6;;;;;;;6.61;71.98;;;;;
2023/11/23 13:10:06;;;;;;;11;6;;;;;;;6.61;72.31;;;;;
2023/11/23 13:21:07;;;;;;;11.6;6.1;;;;;;;6.58;72.74;;;;;
2023/11/23 13:32:06;;;;;;;11.6;6.1;;;;;;;6.46;72.48;;;;;
2023/11/23 13:42:06;;;;;;;11.6;6.1;;;;;;;6.31;72.39;;;;;
2023/11/23 13:53:09;;;;;;;11.2;6;;;;;;;6.39;73.22;;;;;
2023/11/23 14:04:06;;;;;;;11.2;6;;;;;;;6.1;73.31;;;;;
2023/11/23 14:14:08;;;;;;;9.7;4.5;;;;;;;5.94;73.28;;;;;
2023/11/23 14:25:07;;;;;;;9.7;4.5;;;;;;;5.85;73.78;;;;;
2023/11/23 14:36:07;;;;;;;9.7;4.5;;;;;;;5.63;74.64;;;;;
2023/11/23 14:46:07;;;;;;;10.3;5;;;;;;;5.58;74.66;;;;;
2023/11/23 14:56:08;;;;;;;10.3;5;;;;;;;5.55;75.03;;;;;
2023/11/23 15:07:06;;;;;;;10.3;5;;;;;;;5.58;75.24;;;;;
2023/11/23 15:18:08;;;;;;;9.4;6.9;;;;;;;5.58;75.42;;;;;
2023/11/23 15:28:10;;;;;;;9.4;6.9;;;;;;;5.53;75.81;;;;;
2023/11/23 15:39:06;;;;;;;9.4;6.9;;;;;;;5.49;76.24;;;;;
2023/11/23 15:49:06;;;;;;;8.7;5.1;;;;;;;5.48;75.87;;;;;
2023/11/23 15:59:06;;;;;;;8.7;5.1;;;;;;;5.52;76.03;;;;;
2023/11/23 16:09:08;;;;;;;8.7;5.1;;;;;;;5.54;76.5;;;;;
2023/11/23 16:20:14;;;;;;;8.7;5.3;;;;;;;5.52;75.79;;;;;
2023/11/23 16:31:06;;;;;;;8.7;5.3;;;;;;;5.62;75.82;;;;;
2023/11/23 16:41:07;;;;;;;8.7;5.3;;;;;;;5.69;76.4;;;;;
2023/11/23 16:52:08;;;;;;;8.7;4.7;;;;;;;5.74;76.89;;;;;
2023/11/23 17:02:08;;;;;;;8.7;4.7;;;;;;;5.81;77.01;;;;;
2023/11/23 17:13:09;;;;;;;8.7;4.7;;;;;;;5.85;77.18;;;;;
2023/11/23 17:24:06;;;;;;;9.5;5.4;;;;;;;5.93;77.25;;;;;
2023/11/23 17:35:08;;;;;;;9.5;5.4;;;;;;;5.97;77.15;;;;;
2023/11/23 17:46:06;;;;;;;7.7;4;;;;;;;6.03;76.79;;;;;
2023/11/23 17:56:09;;;;;;;7.7;4;;;;;;;6.08;76.94;;;;;
2023/11/23 18:07:07;;;;;;;7.7;4;;;;;;;6.15;77;;;;;
2023/11/23 18:17:07;;;;;;;7.6;4.1;;;;;;;6.18;76.64;;;;;
2023/11/23 18:28:06;;;;;;;7.6;4.1;;;;;;;6.21;75.98;;;;;
2023/11/23 18:39:09;;;;;;;7.6;4.1;;;;;;;6.25;76.28;;;;;
2023/11/23 18:50:07;;;;;;;7.7;4.4;;;;;;;6.32;75.89;;;;;
2023/11/23 19:01:06;;;;;;;7.7;4.4;;;;;;;6.39;75.56;;;;;
2023/11/23 19:12:06;;;;;;;7.7;4.4;;;;;;;6.51;75.27;;;;;
2023/11/23 19:23:07;;;;;;;8.1;4.2;;;;;;;6.59;75.05;;;;;
2023/11/23 19:33:07;;;;;;;8.1;4.2;;;;;;;6.59;75.16;;;;;
2023/11/23 19:44:06;;;;;;;6.5;3.5;;;;;;;6.51;75.31;;;;;
2023/11/23 19:55:06;;;;;;;6.5;3.5;;;;;;;6.47;75.36;;;;;
2023/11/23 20:05:07;;;;;;;6.5;3.5;;;;;;;6.45;75.85;;;;;
2023/11/23 20:16:06;;;;;;;7.6;4;;;;;;;6.44;76.01;;;;;
2023/11/23 20:26:06;;;;;;;7.6;4;;;;;;;6.27;76.15;;;;;
2023/11/23 20:36:06;;;;;;;7.6;4;;;;;;;6.3;76.52;;;;;
2023/11/23 20:46:07;;;;;;;8.6;4;;;;;;;6.37;76.23;;;;;
2023/11/23 20:56:06;;;;;;;8.6;4;;;;;;;6.37;76.25;;;;;
2023/11/23 21:07:07;;;;;;;8.6;4;;;;;;;6.49;76.43;;;;;
2023/11/23 21:18:06;;;;;;;7.9;4;;;;;;;6.46;76.56;;;;;
2023/11/23 21:28:06;;;;;;;7.9;4;;;;;;;6.54;76.28;;;;;
2023/11/23 21:38:06;;;;;;;7.9;4;;;;;;;6.64;76.48;;;;;
2023/11/23 21:49:06;;;;;;;7.3;4.1;;;;;;;6.8;76.17;;;;;
2023/11/23 22:00:09;;;;;;;7.3;4.1;;;;;;;6.99;75.49;;;;;
2023/11/23 22:10:07;;;;;;;7.3;4.1;;;;;;;7.12;75.82;;;;;
2023/11/23 22:20:08;;;;;;;8.1;3.3;;;;;;;7.25;75.29;;;;;
2023/11/23 22:31:06;;;;;;;8.1;3.3;;;;;;;7.27;75.6;;;;;
2023/11/23 22:41:07;;;;;;;8.1;3.3;;;;;;;7.24;76.96;;;;;
2023/11/23 22:52:06;;;;;;;6.2;3.1;;;;;;;7.42;76.31;;;;;
2023/11/23 23:02:08;;;;;;;6.2;3.1;;;;;;;7.52;75.63;;;;;
2023/11/23 23:13:07;;;;;;;5.2;2.4;;;;;;;7.84;76.1;;;;;
2023/11/23 23:24:06;;;;;;;5.2;2.4;;;;;;;8.29;73.69;;;;;
2023/11/23 23:34:06;;;;;;;5.2;2.4;;;;;;;8.48;73.04;;;;;
2023/11/23 23:45:07;;;;;;;2.1;1.2;;;;;;;8.51;72.87;;;;;
2023/11/23 23:55:07;;;;;;;2.1;1.2;;;;;;;8.53;72.71;;;;;
